Boca Raton, FL (33427)

3:15 PM EST on February 11, 2016 (GMT -0500)
Boca Villas | | Change Station
CLOSE
Current Station
Personal Weather Station
Location: Boca Raton, FL
Elevation: 23 ft
Nearby Weather Stations

Elev 23 ft 26.36 °N, 80.08 °W | Updated 3 minutes ago

Partly Cloudy
Partly Cloudy
67.9 °F
Feels Like 67.9 °F
N
1.0
Wind Variable Wind from NE
Gusts 4.0 mph

Today
High -- | Low -- °F
--% Chance of Precip.
Yesterday
High -- | Low -- °F
Precip. -- in
Pressure 30.26 in
Visibility 10.0 miles
Clouds Few 13000 ft
Scattered Clouds 25000 ft
Dew Point 39 °F
Humidity 35%
Rainfall 0.00 in
Snow Depth Not available.
6:59 AM 6:10 PM
Waxing Crescent, 14% visible
METAR KPMP 111953Z 05008KT 10SM FEW130 SCT250 19/02 A3026 RMK AO2 SLP246 T01890022
Pressure 30.26 in
Visibility 10.0 miles
Clouds Few 13000 ft
Scattered Clouds 25000 ft
Dew Point 39 °F
Humidity 35%
Rainfall 0.00 in
Snow Depth Not available.
6:59 AM 6:10 PM
Waxing Crescent, 14% visible
METAR KPMP 111953Z 05008KT 10SM FEW130 SCT250 19/02 A3026 RMK AO2 SLP246 T01890022

10-Day Weather Forecast

Almanac

Astronomy

Feb. 11, 2016 Rise Set
Actual Time
Civil Twilight
Nautical Twilight
Astronomical Twilight
Moon
Length of Visible Light
Length of Day
Tomorrow will be .
, % of the Moon is Illuminated

Today's Extremes

State Highs State Lows

Community

WunderPhotos

Upload Photos

1,892,146 photos uploaded!

WunderBlog® & News

Nearby

Air Quality

  Air Quality AQ Index Pollutant
Not available.

Snow Depth

Station Depth Elevation

Earthquake Activity

City Distance Mag. Time & Date
Minimum magnitude displayed is 2.5.

Coastal Water Temperatures

Place Temperature

Stations

Nearby Weather Stations

Station Location Temp. Windchill Dew Point Humidity Wind Precip. Elev Updated Type
                   

Watches & Warnings

There are currently no watches in effect.